createdAt,value
2018-12-22T00:00:29.128Z,11.6
2018-12-22T00:01:29.790Z,11.6
2018-12-22T00:02:30.450Z,11.5
2018-12-22T00:03:31.112Z,11.6
2018-12-22T00:04:31.781Z,11.6
2018-12-22T00:05:32.436Z,11.5
2018-12-22T00:06:33.099Z,11.6
2018-12-22T00:07:33.761Z,11.5
2018-12-22T00:08:34.424Z,11.6
2018-12-22T00:09:35.088Z,11.5
2018-12-22T00:10:35.750Z,11.5
2018-12-22T00:11:36.413Z,11.6
2018-12-22T00:12:37.077Z,11.5
2018-12-22T00:13:37.741Z,11.5
2018-12-22T00:14:38.403Z,11.4
2018-12-22T00:15:39.065Z,11.4
2018-12-22T00:16:39.728Z,11.4
2018-12-22T00:17:40.391Z,11.3
2018-12-22T00:18:41.153Z,11.4
2018-12-22T00:19:41.764Z,11.3
2018-12-22T00:20:42.425Z,11.2
2018-12-22T00:21:43.086Z,11.2
2018-12-22T00:22:43.749Z,11.2
2018-12-22T00:23:44.411Z,11.3
2018-12-22T00:24:45.074Z,11.2
2018-12-22T00:25:45.738Z,11.1
2018-12-22T00:26:46.403Z,11.1
2018-12-22T00:27:47.065Z,11.1
2018-12-22T00:28:47.726Z,11.0
2018-12-22T00:29:48.390Z,11.1
2018-12-22T00:30:49.051Z,11.1
2018-12-22T00:31:49.713Z,11.2
2018-12-22T00:32:50.377Z,11.3
2018-12-22T00:33:51.086Z,11.2
2018-12-22T00:34:51.799Z,11.3
2018-12-22T00:35:52.422Z,11.3
2018-12-22T00:36:53.084Z,11.3
2018-12-22T00:37:53.745Z,11.3
2018-12-22T00:38:54.406Z,11.3
2018-12-22T00:39:55.072Z,11.4
2018-12-22T00:40:55.735Z,11.3
2018-12-22T00:41:56.394Z,11.3
2018-12-22T00:42:57.056Z,11.4
2018-12-22T00:43:57.717Z,11.3
2018-12-22T00:44:58.378Z,11.3
2018-12-22T00:45:59.039Z,11.4
2018-12-22T00:46:59.700Z,11.4
2018-12-22T00:48:00.363Z,11.4
2018-12-22T00:49:01.031Z,11.4
2018-12-22T00:50:01.737Z,11.4
2018-12-22T00:51:02.452Z,11.4
2018-12-22T00:52:03.162Z,11.4
2018-12-22T00:53:03.892Z,11.5
2018-12-22T00:54:04.583Z,11.5
2018-12-22T00:55:05.244Z,11.5
2018-12-22T00:56:05.907Z,11.4
2018-12-22T00:57:06.568Z,11.5
2018-12-22T00:58:07.228Z,11.6
2018-12-22T00:59:07.889Z,11.6
2018-12-22T01:00:08.549Z,11.5
2018-12-22T01:01:09.212Z,11.5
2018-12-22T01:02:09.882Z,11.6
2018-12-22T01:03:10.543Z,11.5
2018-12-22T01:04:11.205Z,11.7
2018-12-22T01:05:11.865Z,11.4
2018-12-22T01:06:12.529Z,11.6
2018-12-22T01:07:13.187Z,11.5
2018-12-22T01:08:13.849Z,11.6
2018-12-22T01:09:14.511Z,11.6
2018-12-22T01:10:15.177Z,11.5
2018-12-22T01:11:15.837Z,11.5
2018-12-22T01:12:16.498Z,11.4
2018-12-22T01:13:17.161Z,11.5
2018-12-22T01:14:17.822Z,11.5
2018-12-22T01:15:18.484Z,11.3
2018-12-22T01:16:19.147Z,11.4
2018-12-22T01:17:19.809Z,11.3
2018-12-22T01:18:20.470Z,11.3
2018-12-22T01:19:21.131Z,11.3
2018-12-22T01:20:21.793Z,11.3
2018-12-22T01:21:22.503Z,11.2
2018-12-22T01:22:23.165Z,11.3
2018-12-22T01:23:23.827Z,11.2
2018-12-22T01:24:24.499Z,11.3
2018-12-22T01:25:25.149Z,11.3
2018-12-22T01:26:25.817Z,11.3
2018-12-22T01:27:26.521Z,11.3
2018-12-22T01:28:27.182Z,11.3
2018-12-22T01:29:27.892Z,11.3
2018-12-22T01:30:28.505Z,11.2
2018-12-22T01:31:29.166Z,11.3
2018-12-22T01:32:29.827Z,11.2
2018-12-22T01:33:30.489Z,11.2
2018-12-22T01:34:31.150Z,11.2
2018-12-22T01:35:31.814Z,11.3
2018-12-22T01:36:32.476Z,11.1
2018-12-22T01:37:33.138Z,11.2
2018-12-22T01:38:33.824Z,11.2
2018-12-22T01:39:34.513Z,11.2
2018-12-22T01:40:35.280Z,11.3
2018-12-22T01:41:35.894Z,11.2
2018-12-22T01:42:36.555Z,11.2
2018-12-22T01:43:37.267Z,11.2
2018-12-22T01:44:37.928Z,11.1
2018-12-22T01:45:38.635Z,11.1
2018-12-22T01:46:39.297Z,11.1
2018-12-22T01:47:39.957Z,11.0
2018-12-22T01:48:40.619Z,11.2
2018-12-22T01:49:41.280Z,11.1
2018-12-22T01:50:41.941Z,11.1
2018-12-22T01:51:42.602Z,11.2
2018-12-22T01:52:43.264Z,11.1
2018-12-22T01:53:43.925Z,11.1
2018-12-22T01:54:44.586Z,11.1
2018-12-22T01:55:45.297Z,11.1
2018-12-22T01:56:45.960Z,11.1
2018-12-22T01:57:46.621Z,11.1
2018-12-22T01:58:47.966Z,11.1
2018-12-22T01:59:48.777Z,11.1
2018-12-22T02:00:49.439Z,11.1
2018-12-22T02:01:50.102Z,11.1
2018-12-22T02:02:50.765Z,11.1
2018-12-22T02:03:51.427Z,11.1
2018-12-22T02:04:52.091Z,11.2
2018-12-22T02:05:52.753Z,11.2
2018-12-22T02:06:53.416Z,11.1
2018-12-22T02:07:54.078Z,11.0
2018-12-22T02:08:54.742Z,11.1
2018-12-22T02:09:55.404Z,11.1
2018-12-22T02:10:56.066Z,11.1
2018-12-22T02:11:56.728Z,11.2
2018-12-22T02:12:57.397Z,11.2
2018-12-22T02:13:58.057Z,11.2
2018-12-22T02:14:58.717Z,11.2
2018-12-22T02:15:59.379Z,11.3
2018-12-22T02:17:00.045Z,11.3
2018-12-22T02:18:00.706Z,11.3
2018-12-22T02:19:01.370Z,11.3
2018-12-22T02:20:02.033Z,11.3
2018-12-22T02:21:02.696Z,11.3
2018-12-22T02:22:03.358Z,11.3
2018-12-22T02:23:04.021Z,11.3
2018-12-22T02:24:04.684Z,11.3
2018-12-22T02:25:05.350Z,11.4
2018-12-22T02:26:06.011Z,11.3
2018-12-22T02:27:06.673Z,11.3
2018-12-22T02:28:07.336Z,11.3
2018-12-22T02:29:08.046Z,11.3
2018-12-22T02:30:08.707Z,11.3
2018-12-22T02:31:09.367Z,11.3
2018-12-22T02:32:10.035Z,11.4
2018-12-22T02:33:10.691Z,11.3
2018-12-22T02:34:11.353Z,11.4
2018-12-22T02:35:12.023Z,11.3
2018-12-22T02:36:12.678Z,11.3
2018-12-22T02:37:13.343Z,11.5
2018-12-22T02:38:14.004Z,11.3
2018-12-22T02:39:14.669Z,11.4
2018-12-22T02:40:15.330Z,11.4
2018-12-22T02:41:15.996Z,11.4
2018-12-22T02:42:16.703Z,11.4
2018-12-22T02:43:17.365Z,11.5
2018-12-22T02:44:18.028Z,11.5
2018-12-22T02:45:18.688Z,11.5
2018-12-22T02:46:19.355Z,11.5
2018-12-22T02:47:20.060Z,11.5
2018-12-22T02:48:20.721Z,11.5
2018-12-22T02:49:21.381Z,11.5
2018-12-22T02:50:22.043Z,11.4
2018-12-22T02:51:22.706Z,11.5
2018-12-22T02:52:23.367Z,11.4
2018-12-22T02:53:24.039Z,11.5
2018-12-22T02:54:24.693Z,11.5
2018-12-22T02:55:25.356Z,11.4
2018-12-22T02:56:26.018Z,11.4
2018-12-22T02:57:26.681Z,11.4
2018-12-22T02:58:27.347Z,11.4
2018-12-22T02:59:28.008Z,11.5
2018-12-22T03:00:28.680Z,11.4
2018-12-22T03:01:29.333Z,11.5
2018-12-22T03:02:30.138Z,11.4
2018-12-22T03:03:30.767Z,11.4
2018-12-22T03:04:31.432Z,11.5
2018-12-22T03:05:32.140Z,11.4
2018-12-22T03:06:32.800Z,11.5
2018-12-22T03:07:33.461Z,11.4
2018-12-22T03:08:34.122Z,11.4
2018-12-22T03:09:34.783Z,11.4
2018-12-22T03:10:35.446Z,11.3
2018-12-22T03:11:36.108Z,11.3
2018-12-22T03:12:36.770Z,11.3
2018-12-22T03:13:37.447Z,11.4
2018-12-22T03:14:38.096Z,11.3
2018-12-22T03:15:38.757Z,11.4
2018-12-22T03:16:39.424Z,11.2
2018-12-22T03:17:40.081Z,11.2
2018-12-22T03:18:40.744Z,11.2
2018-12-22T03:19:41.405Z,11.2
2018-12-22T03:20:42.067Z,11.2
2018-12-22T03:21:42.741Z,11.0
2018-12-22T03:22:43.441Z,11.1
2018-12-22T03:23:44.102Z,11.1
2018-12-22T03:24:44.764Z,11.1
2018-12-22T03:25:45.427Z,11.1
2018-12-22T03:26:46.088Z,11.1
2018-12-22T03:27:46.750Z,11.1
2018-12-22T03:28:47.415Z,11.0
2018-12-22T03:29:48.074Z,11.1
2018-12-22T03:30:48.739Z,10.9
2018-12-22T03:31:49.441Z,10.9
2018-12-22T03:32:50.102Z,10.9
2018-12-22T03:33:50.762Z,10.9
2018-12-22T03:34:51.422Z,11.0
2018-12-22T03:35:52.086Z,10.9
2018-12-22T03:36:52.749Z,11.0
2018-12-22T03:37:53.457Z,11.0
2018-12-22T03:38:54.200Z,11.1
2018-12-22T03:39:54.814Z,10.9
2018-12-22T03:40:55.476Z,11.0
2018-12-22T03:41:56.139Z,11.1
2018-12-22T03:42:56.801Z,11.0
2018-12-22T03:43:57.468Z,10.9
2018-12-22T03:44:58.129Z,10.9
2018-12-22T03:45:58.791Z,10.9
2018-12-22T03:46:59.454Z,10.9
2018-12-22T03:48:00.130Z,10.9
2018-12-22T03:49:00.779Z,11.0
2018-12-22T03:50:01.444Z,11.0
2018-12-22T03:51:02.153Z,10.9
2018-12-22T03:52:02.816Z,10.9
2018-12-22T03:53:03.480Z,11.0
2018-12-22T03:54:04.189Z,10.9
2018-12-22T03:55:04.850Z,10.8
2018-12-22T03:56:05.511Z,10.8
2018-12-22T03:57:06.170Z,10.7
2018-12-22T03:58:06.834Z,10.8
2018-12-22T03:59:07.497Z,10.7
2018-12-22T04:00:08.157Z,10.7
2018-12-22T04:01:08.819Z,10.7
2018-12-22T04:02:09.481Z,10.6
2018-12-22T04:03:11.940Z,10.6
2018-12-22T04:04:11.798Z,10.6
2018-12-22T04:05:12.460Z,10.6
2018-12-22T04:06:13.121Z,10.5
2018-12-22T04:07:13.783Z,10.4
2018-12-22T04:08:14.442Z,10.4
2018-12-22T04:09:15.102Z,10.4
2018-12-22T04:10:15.765Z,10.4
2018-12-22T04:11:16.426Z,10.4
2018-12-22T04:12:17.088Z,10.4
2018-12-22T04:13:17.749Z,10.3
2018-12-22T04:14:18.411Z,10.3
2018-12-22T04:15:19.076Z,10.3
2018-12-22T04:16:19.738Z,10.2
2018-12-22T04:17:20.403Z,10.3
2018-12-22T04:18:21.061Z,10.2
2018-12-22T04:19:21.724Z,10.2
2018-12-22T04:20:22.387Z,10.2
2018-12-22T04:21:23.048Z,10.3
2018-12-22T04:22:23.713Z,10.2
2018-12-22T04:23:24.373Z,10.2
2018-12-22T04:24:25.035Z,10.2
2018-12-22T04:25:25.698Z,10.1
2018-12-22T04:26:26.414Z,10.2
2018-12-22T04:27:27.033Z,10.2
2018-12-22T04:28:27.697Z,10.3
2018-12-22T04:29:33.758Z,10.2
2018-12-22T04:30:30.014Z,10.2
2018-12-22T04:31:30.722Z,10.2
2018-12-22T04:32:31.380Z,10.1
2018-12-22T04:33:32.042Z,10.2
2018-12-22T04:34:32.703Z,10.2
2018-12-22T04:35:33.363Z,10.1
2018-12-22T04:36:34.025Z,10.1
2018-12-22T04:37:34.687Z,10.2
2018-12-22T04:38:35.349Z,10.2
2018-12-22T04:39:36.010Z,10.2
2018-12-22T04:40:36.674Z,10.2
2018-12-22T04:41:37.334Z,10.2
2018-12-22T04:42:38.044Z,10.2
2018-12-22T04:43:38.708Z,10.2
2018-12-22T04:44:39.416Z,10.2
2018-12-22T04:45:40.075Z,10.2
2018-12-22T04:46:40.735Z,10.2
2018-12-22T04:47:41.396Z,10.2
2018-12-22T04:48:42.061Z,10.3
2018-12-22T04:49:42.719Z,10.3
2018-12-22T04:50:43.429Z,10.3
2018-12-22T04:51:44.091Z,10.3
2018-12-22T04:52:44.752Z,10.3
2018-12-22T04:53:45.414Z,10.3
2018-12-22T04:54:46.076Z,10.3
2018-12-22T04:55:46.737Z,10.3
2018-12-22T04:56:47.398Z,10.3
2018-12-22T04:57:48.060Z,10.3
2018-12-22T04:58:48.723Z,10.3
2018-12-22T04:59:49.436Z,10.3
2018-12-22T05:00:50.094Z,10.4
2018-12-22T05:01:50.755Z,10.3
2018-12-22T05:02:51.420Z,10.3
2018-12-22T05:03:52.080Z,10.4
2018-12-22T05:04:52.743Z,10.4
2018-12-22T05:05:53.402Z,10.4
2018-12-22T05:06:54.063Z,10.3
2018-12-22T05:07:54.725Z,10.3
2018-12-22T05:08:55.387Z,10.3
2018-12-22T05:09:56.050Z,10.4
2018-12-22T05:10:56.711Z,10.3
2018-12-22T05:11:57.422Z,10.3
2018-12-22T05:12:58.085Z,10.3
2018-12-22T05:13:58.746Z,10.3
2018-12-22T05:14:59.407Z,10.2
2018-12-22T05:16:00.071Z,10.2
2018-12-22T05:17:00.730Z,10.3
2018-12-22T05:18:01.393Z,10.2
2018-12-22T05:19:02.054Z,10.2
2018-12-22T05:20:02.719Z,10.2
2018-12-22T05:21:03.427Z,10.3
2018-12-22T05:22:04.137Z,10.2
2018-12-22T05:23:04.798Z,10.2
2018-12-22T05:24:05.460Z,10.2
2018-12-22T05:25:06.119Z,10.3
2018-12-22T05:26:06.782Z,10.2
2018-12-22T05:27:07.442Z,10.2
2018-12-22T05:28:08.152Z,10.3
2018-12-22T05:29:08.814Z,10.2
2018-12-22T05:30:09.528Z,10.3
2018-12-22T05:31:10.184Z,10.3
2018-12-22T05:32:10.843Z,10.3
2018-12-22T05:33:11.503Z,10.2
2018-12-22T05:34:12.164Z,10.3
2018-12-22T05:35:12.826Z,10.3
2018-12-22T05:36:13.488Z,10.4
2018-12-22T05:37:14.198Z,10.4
2018-12-22T05:38:14.859Z,10.4
2018-12-22T05:39:15.520Z,10.4
2018-12-22T05:40:16.275Z,10.4
2018-12-22T05:41:16.895Z,10.4
2018-12-22T05:42:17.555Z,10.5
2018-12-22T05:43:18.215Z,10.5
2018-12-22T05:44:18.879Z,10.5
2018-12-22T05:45:19.542Z,10.6
2018-12-22T05:46:20.248Z,10.5
2018-12-22T05:47:20.908Z,10.5
2018-12-22T05:48:21.570Z,10.7
2018-12-22T05:49:22.230Z,10.6
2018-12-22T05:50:22.890Z,10.6
2018-12-22T05:51:23.601Z,10.6
2018-12-22T05:52:24.262Z,10.6
2018-12-22T05:53:24.922Z,10.6
2018-12-22T05:54:25.586Z,10.6
2018-12-22T05:55:26.245Z,10.6
2018-12-22T05:56:26.907Z,10.6
2018-12-22T05:57:27.569Z,10.7
2018-12-22T05:58:28.230Z,10.8
2018-12-22T05:59:28.893Z,10.7
2018-12-22T06:00:29.603Z,10.8
2018-12-22T06:01:30.265Z,10.7
2018-12-22T06:02:30.925Z,10.8
2018-12-22T06:03:31.586Z,10.7
2018-12-22T06:04:32.249Z,10.8
2018-12-22T06:05:32.909Z,10.7
2018-12-22T06:06:33.573Z,10.8
2018-12-22T06:07:34.237Z,10.8
2018-12-22T06:08:34.897Z,10.8
2018-12-22T06:09:35.607Z,10.7
2018-12-22T06:10:36.270Z,10.8
2018-12-22T06:11:36.930Z,10.8
2018-12-22T06:12:37.636Z,10.8
2018-12-22T06:13:38.250Z,10.9
2018-12-22T06:14:38.911Z,10.9
2018-12-22T06:15:39.572Z,10.9
2018-12-22T06:16:40.234Z,10.9
2018-12-22T06:17:40.895Z,10.9
2018-12-22T06:18:41.558Z,10.9
2018-12-22T06:19:42.217Z,10.9
2018-12-22T06:20:42.883Z,10.9
2018-12-22T06:21:43.541Z,10.9
2018-12-22T06:22:44.203Z,10.9
2018-12-22T06:23:44.866Z,10.9
2018-12-22T06:24:45.532Z,10.8
2018-12-22T06:25:46.193Z,10.9
2018-12-22T06:26:46.906Z,11.0
2018-12-22T06:27:47.562Z,10.9
2018-12-22T06:28:48.272Z,10.9
2018-12-22T06:29:48.937Z,10.9
2018-12-22T06:30:49.594Z,10.9
2018-12-22T06:31:50.255Z,10.9
2018-12-22T06:32:50.916Z,10.8
2018-12-22T06:33:51.580Z,10.8
2018-12-22T06:34:52.243Z,10.8
2018-12-22T06:35:52.905Z,10.9
2018-12-22T06:36:53.567Z,10.9
2018-12-22T06:37:54.231Z,10.9
2018-12-22T06:38:54.895Z,10.9
2018-12-22T06:39:55.556Z,10.9
2018-12-22T06:40:56.219Z,10.9
2018-12-22T06:41:56.881Z,10.9
2018-12-22T06:42:57.544Z,10.9
2018-12-22T06:43:58.253Z,10.8
2018-12-22T06:44:58.914Z,10.8
2018-12-22T06:45:59.576Z,10.8
2018-12-22T06:47:00.237Z,10.7
2018-12-22T06:48:00.905Z,10.8
2018-12-22T06:49:01.561Z,10.8
2018-12-22T06:50:02.227Z,10.8
2018-12-22T06:51:02.887Z,10.7
2018-12-22T06:52:03.600Z,10.8
2018-12-22T06:53:04.260Z,10.8
2018-12-22T06:54:04.921Z,10.8
2018-12-22T06:55:05.618Z,10.8
2018-12-22T06:56:06.244Z,10.8
2018-12-22T06:57:06.905Z,10.8
2018-12-22T06:58:07.569Z,10.7
2018-12-22T06:59:08.232Z,10.7
2018-12-22T07:00:17.395Z,10.8
2018-12-22T07:01:09.600Z,10.7
2018-12-22T07:02:10.262Z,10.7
2018-12-22T07:03:10.926Z,10.7
2018-12-22T07:04:11.590Z,10.7
2018-12-22T07:05:12.250Z,10.7
2018-12-22T07:06:12.912Z,10.7
2018-12-22T07:07:13.574Z,10.6
2018-12-22T07:08:14.237Z,10.6
2018-12-22T07:09:14.901Z,10.7
2018-12-22T07:10:15.564Z,10.6
2018-12-22T07:11:16.273Z,10.6
2018-12-22T07:12:16.936Z,10.7
2018-12-22T07:13:17.596Z,10.7
2018-12-22T07:14:18.259Z,10.6
2018-12-22T07:15:18.921Z,10.6
2018-12-22T07:16:19.620Z,10.7
2018-12-22T07:17:20.284Z,10.6
2018-12-22T07:18:21.006Z,10.6
2018-12-22T07:19:21.617Z,10.6
2018-12-22T07:20:22.279Z,10.5
2018-12-22T07:21:22.942Z,10.6
2018-12-22T07:22:23.605Z,10.5
2018-12-22T07:23:24.266Z,10.6
2018-12-22T07:24:24.929Z,10.6
2018-12-22T07:25:25.593Z,10.6
2018-12-22T07:26:26.305Z,10.6
2018-12-22T07:27:26.968Z,10.6
2018-12-22T07:28:27.681Z,10.7
2018-12-22T07:29:28.343Z,10.6
2018-12-22T07:30:29.007Z,10.7
2018-12-22T07:31:29.668Z,10.7
2018-12-22T07:32:30.331Z,10.6
2018-12-22T07:33:30.994Z,10.7
2018-12-22T07:34:31.657Z,10.7
2018-12-22T07:35:32.319Z,10.6
2018-12-22T07:36:32.983Z,10.6
2018-12-22T07:37:33.645Z,10.7
2018-12-22T07:38:34.310Z,10.7
2018-12-22T07:39:34.973Z,10.6
2018-12-22T07:40:35.637Z,10.6
2018-12-22T07:41:36.301Z,10.7
2018-12-22T07:42:36.966Z,10.6
2018-12-22T07:43:37.632Z,10.6
2018-12-22T07:44:38.298Z,10.6
2018-12-22T07:45:38.964Z,10.6
2018-12-22T07:46:39.628Z,10.7
2018-12-22T07:47:40.294Z,10.8
2018-12-22T07:48:40.954Z,10.8
2018-12-22T07:49:41.618Z,10.8
2018-12-22T07:50:42.281Z,10.8
2018-12-22T07:51:42.948Z,10.8
2018-12-22T07:52:51.458Z,10.8
2018-12-22T07:53:44.319Z,10.7
2018-12-22T07:54:44.983Z,10.8
2018-12-22T07:55:45.647Z,10.9
2018-12-22T07:56:46.310Z,10.8
2018-12-22T07:57:46.976Z,10.9
2018-12-22T07:58:47.640Z,10.9
2018-12-22T07:59:48.305Z,10.8
2018-12-22T08:00:48.969Z,10.8
2018-12-22T08:01:49.633Z,10.9
2018-12-22T08:02:50.299Z,11.0
2018-12-22T08:03:50.965Z,10.9
2018-12-22T08:04:51.634Z,10.9
2018-12-22T08:05:52.298Z,10.9
2018-12-22T08:06:52.964Z,10.9
2018-12-22T08:07:53.628Z,11.0
2018-12-22T08:08:54.294Z,10.9
2018-12-22T08:09:54.959Z,11.0
2018-12-22T08:10:55.625Z,10.9
2018-12-22T08:11:56.289Z,11.0
2018-12-22T08:12:56.953Z,11.0
2018-12-22T08:13:57.620Z,11.0
2018-12-22T08:14:58.285Z,10.9
2018-12-22T08:15:58.950Z,10.9
2018-12-22T08:16:59.615Z,10.9
2018-12-22T08:18:00.282Z,11.0
2018-12-22T08:19:00.950Z,10.9
2018-12-22T08:20:01.622Z,10.9
2018-12-22T08:21:02.286Z,11.0
2018-12-22T08:22:02.947Z,11.1
2018-12-22T08:23:03.614Z,11.1
2018-12-22T08:24:04.285Z,11.2
2018-12-22T08:25:04.947Z,11.3
2018-12-22T08:26:05.610Z,11.3
2018-12-22T08:27:06.279Z,11.3
2018-12-22T08:28:06.939Z,11.3
2018-12-22T08:29:07.602Z,11.3
2018-12-22T08:30:08.266Z,11.3
2018-12-22T08:31:08.933Z,11.3
2018-12-22T08:32:09.601Z,11.3
2018-12-22T08:33:10.261Z,11.3
2018-12-22T08:34:10.926Z,11.3
2018-12-22T08:35:11.592Z,11.3
2018-12-22T08:36:12.258Z,11.2
2018-12-22T08:37:12.924Z,11.2
2018-12-22T08:38:13.590Z,11.2
2018-12-22T08:39:14.253Z,11.0
2018-12-22T08:40:14.918Z,11.0
2018-12-22T08:41:15.583Z,10.9
2018-12-22T08:42:16.247Z,10.8
2018-12-22T08:43:16.918Z,10.8
2018-12-22T08:44:17.628Z,10.7
2018-12-22T08:45:18.291Z,10.7
2018-12-22T08:46:19.007Z,10.6
2018-12-22T08:47:19.721Z,10.6
2018-12-22T08:48:20.387Z,10.7
2018-12-22T08:49:21.104Z,10.6
2018-12-22T08:50:21.768Z,10.6
2018-12-22T08:51:22.438Z,10.6
2018-12-22T08:52:23.097Z,10.6
2018-12-22T08:53:23.762Z,10.6
2018-12-22T08:54:24.427Z,10.6
2018-12-22T08:55:25.093Z,10.5
2018-12-22T08:56:25.760Z,10.5
2018-12-22T08:57:26.475Z,10.6
2018-12-22T08:58:27.141Z,10.5
2018-12-22T08:59:27.807Z,10.6
2018-12-22T09:00:28.475Z,10.5
2018-12-22T09:01:29.145Z,10.6
2018-12-22T09:02:29.809Z,10.7
2018-12-22T09:03:30.474Z,10.7
2018-12-22T09:04:31.140Z,10.7
2018-12-22T09:05:31.808Z,10.6
2018-12-22T09:06:32.524Z,10.7
2018-12-22T09:07:33.244Z,10.7
2018-12-22T09:08:33.910Z,10.7
2018-12-22T09:09:34.625Z,10.7
2018-12-22T09:10:35.395Z,10.7
2018-12-22T09:11:36.043Z,10.7
2018-12-22T09:12:36.711Z,10.6
2018-12-22T09:13:37.377Z,10.6
2018-12-22T09:14:38.044Z,10.6
2018-12-22T09:15:38.710Z,10.6
2018-12-22T09:16:39.375Z,10.7
2018-12-22T09:17:40.042Z,10.6
2018-12-22T09:18:40.710Z,10.5
2018-12-22T09:19:41.375Z,10.6
2018-12-22T09:20:42.048Z,10.6
2018-12-22T09:21:42.711Z,10.6
2018-12-22T09:22:43.377Z,10.5
2018-12-22T09:23:44.093Z,10.6
2018-12-22T09:24:44.759Z,10.5
2018-12-22T09:25:45.419Z,10.6
2018-12-22T09:26:46.086Z,10.6
2018-12-22T09:27:46.752Z,10.7
2018-12-22T09:28:47.443Z,10.6
2018-12-22T09:29:48.133Z,10.7
2018-12-22T09:30:48.804Z,10.7
2018-12-22T09:31:49.467Z,10.7
2018-12-22T09:32:50.136Z,10.6
2018-12-22T09:33:50.802Z,10.7
2018-12-22T09:34:51.468Z,10.7
2018-12-22T09:35:52.179Z,10.7
2018-12-22T09:36:52.846Z,10.7
2018-12-22T09:37:53.513Z,10.7
2018-12-22T09:38:54.230Z,10.8
2018-12-22T09:39:54.897Z,10.8
2018-12-22T09:40:55.564Z,10.8
2018-12-22T09:41:56.228Z,10.8
2018-12-22T09:42:56.893Z,10.8
2018-12-22T09:43:57.559Z,10.8
2018-12-22T09:44:58.230Z,10.7
2018-12-22T09:45:58.892Z,10.8
2018-12-22T09:46:59.560Z,10.7
2018-12-22T09:48:00.224Z,10.7
2018-12-22T09:49:00.889Z,10.7
2018-12-22T09:50:01.555Z,10.8
2018-12-22T09:51:02.220Z,10.8
2018-12-22T09:52:02.889Z,10.8
2018-12-22T09:53:03.597Z,10.8
2018-12-22T09:54:04.262Z,10.8
2018-12-22T09:55:04.927Z,10.8
2018-12-22T09:56:05.591Z,10.9
2018-12-22T09:57:06.260Z,11.0
2018-12-22T09:58:06.922Z,11.0
2018-12-22T09:59:07.587Z,11.0
2018-12-22T10:00:08.255Z,11.1
2018-12-22T10:01:09.390Z,11.2
2018-12-22T10:02:10.357Z,11.1
2018-12-22T10:03:11.022Z,11.1
2018-12-22T10:04:11.686Z,11.1
2018-12-22T10:05:12.355Z,11.1
2018-12-22T10:06:13.071Z,11.2
2018-12-22T10:07:13.733Z,11.2
2018-12-22T10:08:14.399Z,11.2
2018-12-22T10:09:15.065Z,11.2
2018-12-22T10:10:15.759Z,11.3
2018-12-22T10:11:16.396Z,11.3
2018-12-22T10:12:17.061Z,11.3
2018-12-22T10:13:17.728Z,11.2
2018-12-22T10:14:18.393Z,11.4
2018-12-22T10:15:19.059Z,11.3
2018-12-22T10:16:19.722Z,11.3
2018-12-22T10:17:20.388Z,11.3
2018-12-22T10:18:21.057Z,11.3
2018-12-22T10:19:21.721Z,11.4
2018-12-22T10:20:22.388Z,11.4
2018-12-22T10:21:23.053Z,11.5
2018-12-22T10:22:23.720Z,11.5
2018-12-22T10:23:24.385Z,11.4
2018-12-22T10:24:25.063Z,11.5
2018-12-22T10:25:25.766Z,11.4
2018-12-22T10:26:26.432Z,11.4
2018-12-22T10:27:27.097Z,11.5
2018-12-22T10:28:27.762Z,11.4
2018-12-22T10:29:28.430Z,11.5
2018-12-22T10:30:29.092Z,11.5
2018-12-22T10:31:29.760Z,11.5
2018-12-22T10:32:30.426Z,11.5
2018-12-22T10:33:31.093Z,11.5
2018-12-22T10:34:31.760Z,11.5
2018-12-22T10:35:32.427Z,11.5
2018-12-22T10:36:33.115Z,11.4
2018-12-22T10:37:33.754Z,11.4
2018-12-22T10:38:34.426Z,11.5
2018-12-22T10:39:35.088Z,11.5
2018-12-22T10:40:35.754Z,11.5
2018-12-22T10:41:36.419Z,11.4
2018-12-22T10:42:37.085Z,11.4
2018-12-22T10:43:37.750Z,11.5
2018-12-22T10:44:38.416Z,11.4
2018-12-22T10:45:39.081Z,11.4
2018-12-22T10:46:39.753Z,11.4
2018-12-22T10:47:40.418Z,11.4
2018-12-22T10:48:41.084Z,11.3
2018-12-22T10:49:41.750Z,11.3
2018-12-22T10:50:42.465Z,11.3
2018-12-22T10:51:43.132Z,11.3
2018-12-22T10:52:43.796Z,11.4
2018-12-22T10:53:44.464Z,11.4
2018-12-22T10:54:45.129Z,11.5
2018-12-22T10:55:45.792Z,11.4
2018-12-22T10:56:46.457Z,11.5
2018-12-22T10:57:47.123Z,11.5
2018-12-22T10:58:47.790Z,11.4
2018-12-22T10:59:48.457Z,11.4
2018-12-22T11:00:49.129Z,11.4
2018-12-22T11:01:49.791Z,11.5
2018-12-22T11:02:50.456Z,11.5
2018-12-22T11:03:51.121Z,11.4
2018-12-22T11:04:51.791Z,11.4
2018-12-22T11:05:52.455Z,11.4
2018-12-22T11:06:53.121Z,11.5
2018-12-22T11:07:53.838Z,11.5
2018-12-22T11:08:54.505Z,11.5
2018-12-22T11:09:55.249Z,11.4
2018-12-22T11:10:55.932Z,11.5
2018-12-22T11:11:56.598Z,11.5
2018-12-22T11:12:57.265Z,11.4
2018-12-22T11:13:57.930Z,11.5
2018-12-22T11:14:58.598Z,11.4
2018-12-22T11:15:59.262Z,11.5
2018-12-22T11:16:59.928Z,11.5
2018-12-22T11:18:00.597Z,11.5
2018-12-22T11:19:01.260Z,11.6
2018-12-22T11:20:01.928Z,11.5
2018-12-22T11:21:02.595Z,11.5
2018-12-22T11:22:03.265Z,11.5
2018-12-22T11:23:03.934Z,11.5
2018-12-22T11:24:04.602Z,11.4
2018-12-22T11:25:05.263Z,11.3
2018-12-22T11:26:05.931Z,11.3
2018-12-22T11:27:06.596Z,11.2
2018-12-22T11:28:07.261Z,11.2
2018-12-22T11:29:07.930Z,11.1
2018-12-22T11:30:08.592Z,11.1
2018-12-22T11:31:09.255Z,11.0
2018-12-22T11:32:09.921Z,10.9
2018-12-22T11:33:10.584Z,10.9
2018-12-22T11:34:11.300Z,10.9
2018-12-22T11:35:11.967Z,10.9
2018-12-22T11:36:12.631Z,10.9
2018-12-22T11:37:13.297Z,10.9
2018-12-22T11:38:13.960Z,10.9
2018-12-22T11:39:14.624Z,10.8
2018-12-22T11:40:15.290Z,10.8
2018-12-22T11:41:15.957Z,10.7
2018-12-22T11:42:16.619Z,10.6
2018-12-22T11:43:17.285Z,10.7
2018-12-22T11:44:17.951Z,10.6
2018-12-22T11:45:18.618Z,10.6
2018-12-22T11:46:19.282Z,10.6
2018-12-22T11:47:19.952Z,10.6
2018-12-22T11:48:20.661Z,10.6
2018-12-22T11:49:21.377Z,10.6
2018-12-22T11:50:22.040Z,10.5
2018-12-22T11:51:22.704Z,10.4
2018-12-22T11:52:23.368Z,10.5
2018-12-22T11:53:24.034Z,10.4
2018-12-22T11:54:24.697Z,10.4
2018-12-22T11:55:25.360Z,10.4
2018-12-22T11:56:26.026Z,10.4
2018-12-22T11:57:26.692Z,10.3
2018-12-22T11:58:27.358Z,10.4
2018-12-22T11:59:28.022Z,10.3
2018-12-22T12:00:28.685Z,10.3
2018-12-22T12:01:29.352Z,10.3
2018-12-22T12:02:30.014Z,10.3
2018-12-22T12:03:30.678Z,10.4
2018-12-22T12:04:31.342Z,10.4
2018-12-22T12:05:32.007Z,10.4
2018-12-22T12:06:32.674Z,10.4
2018-12-22T12:07:33.340Z,10.4
2018-12-22T12:08:34.009Z,10.5
2018-12-22T12:09:34.671Z,10.4
2018-12-22T12:10:35.335Z,10.4
2018-12-22T12:11:35.999Z,10.4
2018-12-22T12:12:36.664Z,10.4
2018-12-22T12:13:37.330Z,10.4
2018-12-22T12:14:38.042Z,10.3
2018-12-22T12:15:38.704Z,10.3
2018-12-22T12:16:39.369Z,10.3
2018-12-22T12:17:40.124Z,10.4
2018-12-22T12:18:40.739Z,10.3
2018-12-22T12:19:41.404Z,10.4
2018-12-22T12:20:42.067Z,10.3
2018-12-22T12:21:42.731Z,10.2
2018-12-22T12:22:43.396Z,10.2
2018-12-22T12:23:44.059Z,10.3
2018-12-22T12:24:44.773Z,10.2
2018-12-22T12:25:45.439Z,10.2
2018-12-22T12:26:46.102Z,10.3
2018-12-22T12:27:46.767Z,10.3
2018-12-22T12:28:47.432Z,10.2
2018-12-22T12:29:48.097Z,10.3
2018-12-22T12:30:48.764Z,10.3
2018-12-22T12:31:52.173Z,10.3
2018-12-22T12:32:51.089Z,10.3
2018-12-22T12:33:51.755Z,10.4
2018-12-22T12:34:52.425Z,10.4
2018-12-22T12:35:53.091Z,10.4
2018-12-22T12:36:53.758Z,10.5
2018-12-22T12:37:54.421Z,10.6
2018-12-22T12:38:55.091Z,10.6
2018-12-22T12:39:55.803Z,10.6
2018-12-22T12:40:56.466Z,10.6
2018-12-22T12:41:57.130Z,10.6
2018-12-22T12:42:57.823Z,10.6
2018-12-22T12:43:58.510Z,10.6
2018-12-22T12:44:59.173Z,10.7
2018-12-22T12:45:59.843Z,10.7
2018-12-22T12:47:00.505Z,10.6
2018-12-22T12:48:01.236Z,10.6
2018-12-22T12:49:01.951Z,10.6
2018-12-22T12:50:02.619Z,10.7
2018-12-22T12:51:03.284Z,10.7
2018-12-22T12:52:03.957Z,10.6
2018-12-22T12:53:09.523Z,10.7
2018-12-22T12:54:06.273Z,10.5
2018-12-22T12:55:06.936Z,10.6
2018-12-22T12:56:07.600Z,10.6
2018-12-22T12:57:08.264Z,10.6
2018-12-22T12:58:08.927Z,10.6
2018-12-22T12:59:09.593Z,10.5
2018-12-22T13:00:10.259Z,10.6
2018-12-22T13:01:10.924Z,10.5
2018-12-22T13:02:11.584Z,10.6
2018-12-22T13:03:12.247Z,10.6
2018-12-22T13:04:12.962Z,10.5
2018-12-22T13:05:13.628Z,10.5
2018-12-22T13:06:14.294Z,10.5
2018-12-22T13:07:14.957Z,10.5
2018-12-22T13:08:15.622Z,10.5
2018-12-22T13:09:16.286Z,10.4
2018-12-22T13:10:16.952Z,10.4
2018-12-22T13:11:17.615Z,10.4
2018-12-22T13:12:18.282Z,10.4
2018-12-22T13:13:18.998Z,10.4
2018-12-22T13:14:19.661Z,10.4
2018-12-22T13:15:20.378Z,10.4
2018-12-22T13:16:21.043Z,10.3
2018-12-22T13:17:21.709Z,10.4
2018-12-22T13:18:22.373Z,10.3
2018-12-22T13:19:23.037Z,10.2
2018-12-22T13:20:23.703Z,10.3
2018-12-22T13:21:24.368Z,10.3
2018-12-22T13:22:25.029Z,10.2
2018-12-22T13:23:25.692Z,10.2
2018-12-22T13:24:26.356Z,10.2
2018-12-22T13:25:27.021Z,10.2
2018-12-22T13:26:36.459Z,10.2
2018-12-22T13:27:29.341Z,10.2